createdAt,value
2019-05-18T00:00:10.415Z,99587.98
2019-05-18T00:02:38.987Z,99581.21
2019-05-18T00:05:08.822Z,99587.18
2019-05-18T00:07:37.454Z,99584.92
2019-05-18T00:10:07.362Z,99586.47
2019-05-18T00:12:35.954Z,99584.38
2019-05-18T00:15:06.836Z,99590.86
2019-05-18T00:17:35.420Z,99583.61
2019-05-18T00:20:08.183Z,99586.08
2019-05-18T00:22:36.961Z,99590.75
2019-05-18T00:25:09.256Z,99583.84
2019-05-18T00:27:37.770Z,99584.14
2019-05-18T00:30:10.595Z,99581.26
2019-05-18T00:32:39.083Z,99581.91
2019-05-18T00:35:08.169Z,99588.23
2019-05-18T00:37:36.645Z,99583.66
2019-05-18T00:40:07.853Z,99578.95
2019-05-18T00:42:36.388Z,99572.70
2019-05-18T00:45:07.104Z,99575.86
2019-05-18T00:47:41.255Z,99583.53
2019-05-18T00:50:06.828Z,99581.86
2019-05-18T00:52:35.410Z,99575.17
2019-05-18T00:55:05.297Z,99568.97
2019-05-18T00:57:33.745Z,99569.09
2019-05-18T01:00:02.195Z,99568.60
2019-05-18T01:02:30.714Z,99570.43
2019-05-18T01:04:59.271Z,99562.77
2019-05-18T01:07:27.717Z,99559.23
2019-05-18T01:09:56.250Z,99560.09
2019-05-18T01:12:24.868Z,99564.80
2019-05-18T01:14:53.324Z,99560.78
2019-05-18T01:17:21.904Z,99556.77
2019-05-18T01:19:50.798Z,99556.77
2019-05-18T01:22:19.393Z,99557.61
2019-05-18T01:24:47.968Z,99554.58
2019-05-18T01:27:16.495Z,99558.27
2019-05-18T01:29:45.028Z,99557.05
2019-05-18T01:32:13.599Z,99556.36
2019-05-18T01:34:42.126Z,99557.49
2019-05-18T01:37:10.727Z,99554.61
2019-05-18T01:39:39.254Z,99558.42
2019-05-18T01:42:07.774Z,99557.20
2019-05-18T01:44:36.399Z,99551.16
2019-05-18T01:47:04.982Z,99554.48
2019-05-18T01:49:33.511Z,99555.46
2019-05-18T01:52:02.034Z,99554.41
2019-05-18T01:54:30.533Z,99549.86
2019-05-18T01:56:59.054Z,99556.46
2019-05-18T01:59:27.588Z,99552.24
2019-05-18T02:01:56.171Z,99550.82
2019-05-18T02:04:24.756Z,99558.16
2019-05-18T02:06:53.389Z,99558.80
2019-05-18T02:09:21.903Z,99557.09
2019-05-18T02:11:50.559Z,99555.91
2019-05-18T02:14:19.079Z,99564.42
2019-05-18T02:16:47.590Z,99561.59
2019-05-18T02:19:16.248Z,99565.97
2019-05-18T02:21:44.764Z,99557.09
2019-05-18T02:24:13.291Z,99558.70
2019-05-18T02:26:41.798Z,99555.98
2019-05-18T02:29:10.323Z,99565.62
2019-05-18T02:31:38.834Z,99558.73
2019-05-18T02:34:07.421Z,99557.18
2019-05-18T02:36:36.002Z,99547.09
2019-05-18T02:39:06.967Z,99556.97
2019-05-18T02:41:35.626Z,99551.11
2019-05-18T02:44:04.619Z,99546.77
2019-05-18T02:46:33.135Z,99542.06
2019-05-18T02:49:01.644Z,99545.22
2019-05-18T02:51:30.233Z,99538.17
2019-05-18T02:53:58.747Z,99531.97
2019-05-18T02:56:27.260Z,99536.14
2019-05-18T02:58:55.774Z,99533.95
2019-05-18T03:01:24.225Z,99532.25
2019-05-18T03:03:52.763Z,99539.09
2019-05-18T03:06:21.527Z,99533.53
2019-05-18T03:08:50.221Z,99534.50
2019-05-18T03:11:18.669Z,99536.00
2019-05-18T03:13:47.181Z,99540.48
2019-05-18T03:16:15.774Z,99535.42
2019-05-18T03:18:44.482Z,99538.25
2019-05-18T03:21:13.253Z,99534.36
2019-05-18T03:23:41.943Z,99531.97
2019-05-18T03:26:10.385Z,99530.99
2019-05-18T03:28:38.896Z,99528.32
2019-05-18T03:31:07.522Z,99532.69
2019-05-18T03:33:36.106Z,99532.05
2019-05-18T03:36:04.752Z,99528.05
2019-05-18T03:38:33.163Z,99526.34
2019-05-18T03:41:01.719Z,99530.72
2019-05-18T03:43:30.208Z,99536.91
2019-05-18T03:45:58.691Z,99558.14
2019-05-18T03:48:27.219Z,99551.34
2019-05-18T03:50:55.693Z,99549.48
2019-05-18T03:53:24.204Z,99550.48
2019-05-18T03:55:52.655Z,99541.73
2019-05-18T03:58:21.191Z,99539.70
2019-05-18T04:00:49.639Z,99540.34
2019-05-18T04:03:18.115Z,99542.66
2019-05-18T04:05:46.627Z,99537.09
2019-05-18T04:08:15.198Z,99539.28
2019-05-18T04:10:43.667Z,99538.64
2019-05-18T04:13:12.309Z,99542.86
2019-05-18T04:15:40.749Z,99540.77
2019-05-18T04:18:09.303Z,99534.17
2019-05-18T04:20:37.900Z,99540.22
2019-05-18T04:23:06.447Z,99539.94
2019-05-18T04:25:34.990Z,99544.37
2019-05-18T04:28:03.521Z,99550.98
2019-05-18T04:30:32.047Z,99553.22
2019-05-18T04:33:00.731Z,99564.70
2019-05-18T04:35:29.280Z,99558.92
2019-05-18T04:37:57.871Z,99558.84
2019-05-18T04:40:26.668Z,99556.62
2019-05-18T04:42:55.142Z,99555.33
2019-05-18T04:45:23.848Z,99551.12
2019-05-18T04:47:52.416Z,99551.86
2019-05-18T04:50:21.016Z,99552.42
2019-05-18T04:52:49.501Z,99556.72
2019-05-18T04:55:18.052Z,99556.84
2019-05-18T04:57:46.521Z,99560.62
2019-05-18T05:00:15.157Z,99550.67
2019-05-18T05:02:43.670Z,99546.77
2019-05-18T05:05:12.256Z,99545.91
2019-05-18T05:07:40.732Z,99545.59
2019-05-18T05:10:09.419Z,99548.06
2019-05-18T05:12:37.872Z,99556.38
2019-05-18T05:15:06.797Z,99556.19
2019-05-18T05:17:35.244Z,99560.13
2019-05-18T05:20:18.634Z,99553.36
2019-05-18T05:22:35.741Z,99553.80
2019-05-18T05:25:04.488Z,99562.52
2019-05-18T05:27:32.933Z,99555.37
2019-05-18T05:30:01.486Z,99563.98
2019-05-18T05:32:29.976Z,99560.47
2019-05-18T05:34:58.495Z,99550.57
2019-05-18T05:37:26.946Z,99555.81
2019-05-18T05:39:55.493Z,99548.86
2019-05-18T05:42:23.936Z,99550.17
2019-05-18T05:44:52.486Z,99556.59
2019-05-18T05:47:21.019Z,99548.33
2019-05-18T05:49:49.491Z,99560.39
2019-05-18T05:52:17.940Z,99557.03
2019-05-18T05:54:46.537Z,99554.84
2019-05-18T05:57:15.001Z,99565.28
2019-05-18T05:59:43.454Z,99566.17
2019-05-18T06:02:12.068Z,99554.48
2019-05-18T06:04:40.594Z,99560.29
2019-05-18T06:07:09.117Z,99562.30
2019-05-18T06:09:37.660Z,99559.33
2019-05-18T06:12:06.194Z,99561.39
2019-05-18T06:14:34.760Z,99560.66
2019-05-18T06:17:03.303Z,99564.48
2019-05-18T06:19:31.760Z,99566.69
2019-05-18T06:22:00.304Z,99565.75
2019-05-18T06:24:28.788Z,99564.78
2019-05-18T06:26:57.505Z,99554.47
2019-05-18T06:29:26.061Z,99557.73
2019-05-18T06:31:54.594Z,99558.35
2019-05-18T06:34:23.152Z,99557.45
2019-05-18T06:36:51.879Z,99558.54
2019-05-18T06:39:20.315Z,99562.31
2019-05-18T06:41:48.865Z,99553.39
2019-05-18T06:44:17.538Z,99553.58
2019-05-18T06:46:46.080Z,99547.62
2019-05-18T06:49:14.606Z,99549.86
2019-05-18T06:51:43.130Z,99552.48
2019-05-18T06:54:11.748Z,99556.02
2019-05-18T06:56:40.706Z,99552.45
2019-05-18T06:59:10.287Z,99552.89
2019-05-18T07:01:38.887Z,99558.83
2019-05-18T07:04:07.499Z,99564.94
2019-05-18T07:06:36.067Z,99558.11
2019-05-18T07:09:12.939Z,99556.45
2019-05-18T07:11:37.398Z,99557.33
2019-05-18T07:14:06.001Z,99561.63
2019-05-18T07:16:34.589Z,99564.11
2019-05-18T07:19:03.203Z,99565.33
2019-05-18T07:21:31.726Z,99565.98
2019-05-18T07:24:00.248Z,99568.78
2019-05-18T07:26:28.696Z,99574.92
2019-05-18T07:28:57.292Z,99578.25
2019-05-18T07:31:25.834Z,99575.67
2019-05-18T07:33:54.355Z,99575.04
2019-05-18T07:36:22.876Z,99571.55
2019-05-18T07:38:51.333Z,99566.64
2019-05-18T07:41:19.788Z,99568.72
2019-05-18T07:43:48.461Z,99570.40
2019-05-18T07:46:16.983Z,99568.53
2019-05-18T07:48:45.593Z,99567.13
2019-05-18T07:51:14.209Z,99567.13
2019-05-18T07:53:42.727Z,99568.31
2019-05-18T07:56:11.261Z,99573.83
2019-05-18T07:58:39.699Z,99574.49
2019-05-18T08:01:08.289Z,99573.41
2019-05-18T08:03:36.897Z,99578.13
2019-05-18T08:06:05.491Z,99572.69
2019-05-18T08:08:34.008Z,99574.17
2019-05-18T08:11:02.534Z,99573.56
2019-05-18T08:13:31.142Z,99572.66
2019-05-18T08:15:59.677Z,99572.94
2019-05-18T08:18:28.215Z,99577.48
2019-05-18T08:20:56.700Z,99580.25
2019-05-18T08:23:25.255Z,99582.98
2019-05-18T08:25:53.949Z,99581.44
2019-05-18T08:28:22.647Z,99571.63
2019-05-18T08:30:51.166Z,99568.04
2019-05-18T08:33:19.690Z,99567.30
2019-05-18T08:35:48.207Z,99567.47
2019-05-18T08:38:16.755Z,99568.30
2019-05-18T08:40:45.344Z,99567.00
2019-05-18T08:43:13.958Z,99568.38
2019-05-18T08:45:42.556Z,99567.86
2019-05-18T08:48:11.084Z,99568.61
2019-05-18T08:50:39.586Z,99564.83
2019-05-18T08:53:08.109Z,99565.41
2019-05-18T08:55:36.700Z,99563.46
2019-05-18T08:58:05.216Z,99557.42
2019-05-18T09:00:33.886Z,99561.30
2019-05-18T09:03:02.512Z,99555.72
2019-05-18T09:05:31.086Z,99556.05
2019-05-18T09:07:59.545Z,99559.41
2019-05-18T09:10:28.164Z,99559.87
2019-05-18T09:12:56.801Z,99559.11
2019-05-18T09:15:25.490Z,99559.97
2019-05-18T09:17:53.951Z,99558.30
2019-05-18T09:20:22.646Z,99563.23
2019-05-18T09:22:51.381Z,99560.53
2019-05-18T09:25:20.139Z,99559.33
2019-05-18T09:27:48.691Z,99557.19
2019-05-18T09:30:17.506Z,99556.17
2019-05-18T09:32:46.050Z,99554.59
2019-05-18T09:35:15.086Z,99554.64
2019-05-18T09:37:43.665Z,99561.18
2019-05-18T09:40:14.050Z,99556.23
2019-05-18T09:42:42.657Z,99561.00
2019-05-18T09:45:12.339Z,99559.50
2019-05-18T09:47:40.957Z,99557.52
2019-05-18T09:50:09.734Z,99558.46
2019-05-18T09:52:46.374Z,99556.55
2019-05-18T09:55:09.195Z,99558.26
2019-05-18T09:57:37.813Z,99554.58
2019-05-18T10:00:11.226Z,99556.13
2019-05-18T10:02:40.095Z,99556.08
2019-05-18T10:05:08.902Z,99559.98
2019-05-18T10:07:37.487Z,99561.23
2019-05-18T10:10:07.810Z,99564.41
2019-05-18T10:12:36.479Z,99555.56
2019-05-18T10:15:07.283Z,99565.13
2019-05-18T10:17:35.798Z,99555.74
2019-05-18T10:20:07.568Z,99553.55
2019-05-18T10:22:36.105Z,99554.58
2019-05-18T10:25:07.280Z,99554.01
2019-05-18T10:27:35.758Z,99553.06
2019-05-18T10:30:09.025Z,99548.47
2019-05-18T10:32:37.814Z,99544.77
2019-05-18T10:35:08.112Z,99546.34
2019-05-18T10:37:36.688Z,99547.08
2019-05-18T10:40:07.688Z,99540.16
2019-05-18T10:42:36.274Z,99545.48
2019-05-18T10:45:06.296Z,99540.88
2019-05-18T10:47:34.876Z,99538.92
2019-05-18T10:50:03.580Z,99528.48
2019-05-18T10:52:32.058Z,99527.21
2019-05-18T10:55:00.607Z,99533.15
2019-05-18T10:57:29.132Z,99529.76
2019-05-18T10:59:57.740Z,99535.34
2019-05-18T11:02:26.323Z,99537.83
2019-05-18T11:04:54.958Z,99533.12
2019-05-18T11:07:23.615Z,99534.41
2019-05-18T11:09:52.182Z,99530.81
2019-05-18T11:12:20.767Z,99518.47
2019-05-18T11:14:49.385Z,99518.06
2019-05-18T11:17:17.900Z,99520.49
2019-05-18T11:19:46.526Z,99519.19
2019-05-18T11:22:15.052Z,99526.48
2019-05-18T11:24:43.675Z,99526.98
2019-05-18T11:27:12.273Z,99522.80
2019-05-18T11:29:40.870Z,99516.61
2019-05-18T11:32:09.529Z,99516.84
2019-05-18T11:34:38.225Z,99518.70
2019-05-18T11:37:06.839Z,99515.16
2019-05-18T11:39:35.359Z,99512.38
2019-05-18T11:42:03.872Z,99515.27
2019-05-18T11:44:32.464Z,99512.00
2019-05-18T11:47:01.165Z,99517.38
2019-05-18T11:49:29.703Z,99511.59
2019-05-18T11:51:58.289Z,99523.10
2019-05-18T11:54:26.826Z,99518.05
2019-05-18T11:56:55.456Z,99511.68
2019-05-18T11:59:23.894Z,99518.27
2019-05-18T12:01:52.585Z,99510.77
2019-05-18T12:04:21.273Z,99510.66
2019-05-18T12:06:49.823Z,99508.83
2019-05-18T12:09:18.268Z,99502.69
2019-05-18T12:11:46.818Z,99504.16
2019-05-18T12:14:15.335Z,99506.80
2019-05-18T12:16:44.054Z,99504.63
2019-05-18T12:19:12.631Z,99489.11
2019-05-18T12:21:41.222Z,99487.38
2019-05-18T12:24:15.432Z,99481.84
2019-05-18T12:26:40.125Z,99483.70
2019-05-18T12:29:08.738Z,99497.98
2019-05-18T12:31:37.337Z,99491.92
2019-05-18T12:34:05.927Z,99488.53
2019-05-18T12:36:34.511Z,99485.23
2019-05-18T12:39:03.913Z,99493.82
2019-05-18T12:41:32.409Z,99496.17
2019-05-18T12:44:00.948Z,99498.02
2019-05-18T12:46:29.475Z,99497.27
2019-05-18T12:48:58.052Z,99493.64
2019-05-18T12:51:26.586Z,99482.91
2019-05-18T12:53:55.093Z,99485.86
2019-05-18T12:56:23.708Z,99483.41
2019-05-18T12:58:52.263Z,99481.19
2019-05-18T13:01:20.971Z,99477.80
2019-05-18T13:03:49.547Z,99485.44
2019-05-18T13:06:18.166Z,99481.58
2019-05-18T13:08:46.695Z,99481.83
2019-05-18T13:11:15.360Z,99471.38
2019-05-18T13:13:43.807Z,99481.49
2019-05-18T13:16:12.378Z,99474.06
2019-05-18T13:18:40.958Z,99474.50
2019-05-18T13:21:09.571Z,99470.36
2019-05-18T13:23:38.081Z,99468.44
2019-05-18T13:26:06.666Z,99468.39
2019-05-18T13:28:35.118Z,99468.34
2019-05-18T13:31:03.789Z,99474.66
2019-05-18T13:33:32.395Z,99464.73
2019-05-18T13:36:00.917Z,99466.88
2019-05-18T13:38:29.394Z,99465.95
2019-05-18T13:40:57.979Z,99463.16
2019-05-18T13:43:26.627Z,99454.80
2019-05-18T13:45:55.140Z,99456.08
2019-05-18T13:48:23.721Z,99451.13
2019-05-18T13:50:52.296Z,99457.50
2019-05-18T13:53:20.962Z,99456.61
2019-05-18T13:55:49.571Z,99447.80
2019-05-18T13:58:18.101Z,99443.13
2019-05-18T14:00:46.740Z,99443.70
2019-05-18T14:03:15.335Z,99447.30
2019-05-18T14:05:43.958Z,99441.33
2019-05-18T14:08:15.819Z,99440.88
2019-05-18T14:10:43.846Z,99443.58
2019-05-18T14:13:12.707Z,99445.36
2019-05-18T14:15:41.407Z,99448.10
2019-05-18T14:18:10.118Z,99441.70
2019-05-18T14:20:38.672Z,99442.80
2019-05-18T14:23:07.285Z,99447.56
2019-05-18T14:25:36.069Z,99450.80
2019-05-18T14:28:04.769Z,99446.64
2019-05-18T14:30:33.350Z,99452.48
2019-05-18T14:33:02.011Z,99448.19
2019-05-18T14:35:33.456Z,99442.93
2019-05-18T14:38:01.091Z,99449.59
2019-05-18T14:40:29.887Z,99443.52
2019-05-18T14:42:58.779Z,99445.48
2019-05-18T14:45:27.672Z,99450.10
2019-05-18T14:47:57.123Z,99450.54
2019-05-18T14:50:26.253Z,99445.36
2019-05-18T14:52:55.050Z,99449.64
2019-05-18T14:55:33.260Z,99450.55
2019-05-18T14:57:55.748Z,99453.90
2019-05-18T15:00:24.890Z,99456.48
2019-05-18T15:02:53.900Z,99457.17
2019-05-18T15:05:23.786Z,99456.65
2019-05-18T15:07:53.142Z,99462.72
2019-05-18T15:10:21.992Z,99466.69
2019-05-18T15:12:50.994Z,99461.31
2019-05-18T15:15:21.213Z,99461.73
2019-05-18T15:17:49.835Z,99458.83
2019-05-18T15:20:19.376Z,99461.14
2019-05-18T15:22:48.383Z,99454.77
2019-05-18T15:25:17.621Z,99458.59
2019-05-18T15:27:46.279Z,99464.23
2019-05-18T15:30:15.995Z,99462.27
2019-05-18T15:32:44.852Z,99465.48
2019-05-18T15:35:14.451Z,99468.03
2019-05-18T15:37:43.836Z,99470.66
2019-05-18T15:40:13.152Z,99474.27
2019-05-18T15:42:41.654Z,99481.72
2019-05-18T15:45:10.907Z,99486.25
2019-05-18T15:47:39.947Z,99494.42
2019-05-18T15:50:08.736Z,99490.70
2019-05-18T15:52:37.814Z,99493.72
2019-05-18T15:55:08.402Z,99498.72
2019-05-18T15:57:37.343Z,99499.28
2019-05-18T16:00:08.202Z,99505.48
2019-05-18T16:02:36.713Z,99512.78
2019-05-18T16:05:05.867Z,99520.41
2019-05-18T16:07:34.550Z,99519.68
2019-05-18T16:10:03.187Z,99515.92
2019-05-18T16:12:31.861Z,99521.55
2019-05-18T16:15:00.807Z,99523.22
2019-05-18T16:17:39.017Z,99528.72
2019-05-18T16:19:59.800Z,99527.92
2019-05-18T16:22:28.589Z,99536.55
2019-05-18T16:24:57.159Z,99531.39
2019-05-18T16:27:25.764Z,99533.20
2019-05-18T16:29:54.567Z,99527.23
2019-05-18T16:32:23.804Z,99524.95
2019-05-18T16:34:52.534Z,99524.84
2019-05-18T16:37:21.056Z,99522.62
2019-05-18T16:39:49.891Z,99524.19
2019-05-18T16:42:18.793Z,99527.54
2019-05-18T16:44:47.375Z,99523.69
2019-05-18T16:47:15.981Z,99523.03
2019-05-18T16:49:44.689Z,99527.33
2019-05-18T16:52:13.283Z,99523.34
2019-05-18T16:54:41.909Z,99522.98
2019-05-18T16:57:10.566Z,99527.38
2019-05-18T16:59:39.199Z,99526.72
2019-05-18T17:02:07.994Z,99530.77
2019-05-18T17:04:36.867Z,99521.94
2019-05-18T17:07:05.456Z,99521.51
2019-05-18T17:09:34.046Z,99521.33
2019-05-18T17:12:02.861Z,99523.80
2019-05-18T17:14:31.564Z,99526.19
2019-05-18T17:17:00.126Z,99525.97
2019-05-18T17:19:28.839Z,99518.64
2019-05-18T17:21:57.764Z,99508.04
2019-05-18T17:24:26.441Z,99497.91
2019-05-18T17:26:55.887Z,99497.19
2019-05-18T17:29:24.971Z,99503.08
2019-05-18T17:31:53.845Z,99497.70
2019-05-18T17:34:23.221Z,99504.89
2019-05-18T17:36:53.013Z,99503.91
2019-05-18T17:39:23.081Z,99509.20
2019-05-18T17:41:53.021Z,99506.67
2019-05-18T17:44:22.218Z,99511.78
2019-05-18T17:46:51.420Z,99512.16
2019-05-18T17:49:26.896Z,99515.05
2019-05-18T17:51:51.404Z,99522.02
2019-05-18T17:54:20.995Z,99515.80
2019-05-18T17:56:49.827Z,99516.39
2019-05-18T17:59:18.957Z,99517.79
2019-05-18T18:01:47.783Z,99512.45
2019-05-18T18:04:17.535Z,99519.80
2019-05-18T18:06:46.867Z,99518.69
2019-05-18T18:09:16.598Z,99523.63
2019-05-18T18:11:46.972Z,99520.45
2019-05-18T18:14:16.953Z,99518.63
2019-05-18T18:16:46.919Z,99519.55
2019-05-18T18:19:16.759Z,99523.47
2019-05-18T18:21:46.577Z,99523.47
2019-05-18T18:24:16.645Z,99520.13
2019-05-18T18:26:45.533Z,99529.13
2019-05-18T18:29:14.824Z,99527.84
2019-05-18T18:31:43.808Z,99527.39
2019-05-18T18:34:12.783Z,99522.42
2019-05-18T18:36:41.812Z,99524.38
2019-05-18T18:39:11.845Z,99532.55
2019-05-18T18:41:41.660Z,99539.67
2019-05-18T18:44:10.898Z,99542.24
2019-05-18T18:46:39.690Z,99542.07
2019-05-18T18:49:09.847Z,99543.42
2019-05-18T18:51:39.882Z,99551.53
2019-05-18T18:54:12.673Z,99543.96
2019-05-18T18:56:41.829Z,99543.28
2019-05-18T18:59:11.795Z,99546.52
2019-05-18T19:01:41.921Z,99538.58
2019-05-18T19:04:11.748Z,99545.54
2019-05-18T19:06:41.304Z,99543.20
2019-05-18T19:09:11.451Z,99546.27
2019-05-18T19:11:42.408Z,99551.20
2019-05-18T19:14:12.539Z,99552.23
2019-05-18T19:16:43.588Z,99552.77
2019-05-18T19:19:12.911Z,99549.08
2019-05-18T19:21:42.432Z,99558.90
2019-05-18T19:24:12.300Z,99555.23
2019-05-18T19:26:42.071Z,99558.30
2019-05-18T19:29:12.937Z,99562.38
2019-05-18T19:31:43.436Z,99563.92
2019-05-18T19:34:13.548Z,99567.30
2019-05-18T19:36:43.591Z,99561.94
2019-05-18T19:39:13.517Z,99571.25
2019-05-18T19:41:43.972Z,99575.16
2019-05-18T19:44:14.375Z,99577.38
2019-05-18T19:46:43.864Z,99573.68
2019-05-18T19:49:14.670Z,99571.81
2019-05-18T19:51:45.211Z,99575.20
2019-05-18T19:54:15.704Z,99571.01
2019-05-18T19:56:46.169Z,99576.41
2019-05-18T19:59:16.980Z,99584.70
2019-05-18T20:01:47.490Z,99580.81
2019-05-18T20:05:11.469Z,99586.41
2019-05-18T20:07:41.663Z,99586.58
2019-05-18T20:10:12.925Z,99579.67
2019-05-18T20:12:43.575Z,99589.32
2019-05-18T20:15:14.626Z,99584.42
2019-05-18T20:17:45.439Z,99584.08
2019-05-18T20:20:16.079Z,99584.58
2019-05-18T20:22:47.136Z,99580.22
2019-05-18T20:29:52.689Z,99579.53
2019-05-18T20:32:23.407Z,99584.14
2019-05-18T20:34:53.911Z,99580.63
2019-05-18T20:37:24.262Z,99584.84
2019-05-18T20:39:55.386Z,99582.67
2019-05-18T20:42:25.612Z,99586.04
2019-05-18T20:44:55.644Z,99576.28
2019-05-18T20:47:25.675Z,99576.28
2019-05-18T20:50:31.289Z,99578.64
2019-05-18T20:53:01.563Z,99572.89
2019-05-18T20:55:31.351Z,99573.78
2019-05-18T20:58:00.557Z,99571.89
2019-05-18T21:00:29.397Z,99569.38
2019-05-18T21:02:58.273Z,99567.49
2019-05-18T21:05:27.075Z,99568.48
2019-05-18T21:07:56.040Z,99566.28
2019-05-18T21:10:24.840Z,99567.44
2019-05-18T21:12:53.362Z,99565.73
2019-05-18T21:15:22.416Z,99567.38
2019-05-18T21:17:51.019Z,99562.67
2019-05-18T21:20:19.710Z,99558.62
2019-05-18T21:22:48.308Z,99558.62
2019-05-18T21:25:17.050Z,99562.33
2019-05-18T21:27:46.050Z,99557.63
2019-05-18T21:30:15.047Z,99559.33
2019-05-18T21:32:43.901Z,99565.78
2019-05-18T21:35:12.846Z,99561.94
2019-05-18T21:37:41.827Z,99565.14
2019-05-18T21:40:10.746Z,99565.69
2019-05-18T21:42:39.264Z,99565.05
2019-05-18T21:45:08.855Z,99563.55
2019-05-18T21:47:37.370Z,99574.69
2019-05-18T21:50:08.075Z,99567.63
2019-05-18T21:52:36.737Z,99563.58
2019-05-18T21:55:06.987Z,99557.14
2019-05-18T21:57:35.536Z,99563.23
2019-05-18T22:00:05.325Z,99567.28
2019-05-18T22:02:33.905Z,99564.39
2019-05-18T22:05:02.580Z,99569.63
2019-05-18T22:07:31.163Z,99564.04
2019-05-18T22:09:59.644Z,99568.94
2019-05-18T22:12:28.224Z,99567.58
2019-05-18T22:14:56.834Z,99569.94
2019-05-18T22:17:25.348Z,99567.94
2019-05-18T22:19:54.225Z,99578.08
2019-05-18T22:22:22.710Z,99582.78
2019-05-18T22:24:51.392Z,99578.08
2019-05-18T22:27:19.855Z,99579.78
2019-05-18T22:29:48.376Z,99580.52
2019-05-18T22:32:16.929Z,99573.15
2019-05-18T22:34:45.575Z,99576.88
2019-05-18T22:37:14.245Z,99568.00
2019-05-18T22:39:42.694Z,99571.57
2019-05-18T22:42:11.330Z,99569.23
2019-05-18T22:44:39.847Z,99570.95
2019-05-18T22:47:08.388Z,99569.80
2019-05-18T22:49:36.835Z,99574.33
2019-05-18T22:52:05.447Z,99572.66
2019-05-18T22:54:34.177Z,99574.33
2019-05-18T22:57:02.727Z,99569.27
2019-05-18T22:59:31.176Z,99581.02
2019-05-18T23:01:59.764Z,99578.50
2019-05-18T23:04:28.304Z,99581.64
2019-05-18T23:06:56.832Z,99575.58
2019-05-18T23:09:25.325Z,99578.06
2019-05-18T23:11:53.872Z,99574.15
2019-05-18T23:14:22.325Z,99578.86
2019-05-18T23:16:50.973Z,99576.81
2019-05-18T23:19:19.450Z,99580.64
2019-05-18T23:21:48.064Z,99574.41
2019-05-18T23:24:16.643Z,99572.22
2019-05-18T23:26:45.123Z,99574.03
2019-05-18T23:29:13.749Z,99572.33
2019-05-18T23:31:42.366Z,99573.50
2019-05-18T23:34:10.897Z,99568.09
2019-05-18T23:36:39.368Z,99560.02
2019-05-18T23:39:07.989Z,99565.89
2019-05-18T23:41:36.511Z,99571.44
2019-05-18T23:44:05.127Z,99570.73
2019-05-18T23:46:33.650Z,99575.30
2019-05-18T23:49:10.366Z,99571.90
2019-05-18T23:51:32.476Z,99572.92
2019-05-18T23:54:00.921Z,99575.75
2019-05-18T23:56:29.528Z,99573.91
2019-05-18T23:58:57.976Z,99567.87
